Time;durP1;ratioP1;P1;durP2;ratioP2;P2;SDS_P1;SDS_P2;PMS_P1;PMS_P2;Temp;Humidity;BMP_temperature;BMP_pressure;BME280_temperature;BME280_humidity;BME280_pressure;Samples;Min_cycle;Max_cycle;Signal;HPM_P1;HPM_P2
2021/08/31 00:01:20;;;;;;;15.10;12.25;;;15.30;99.90;;;;;;5093126;28;20115;-54
2021/08/31 00:03:46;;;;;;;16.63;11.65;;;15.30;99.90;;;;;;5093259;28;20040;-51
2021/08/31 00:06:11;;;;;;;14.70;11.95;;;15.40;99.90;;;;;;5092014;28;20110;-54
2021/08/31 00:08:37;;;;;;;16.50;12.77;;;15.20;99.90;;;;;;5092046;28;20085;-52
2021/08/31 00:11:03;;;;;;;16.00;11.10;;;15.20;99.90;;;;;;5092104;28;20032;-55
2021/08/31 00:13:28;;;;;;;16.38;11.35;;;15.20;99.90;;;;;;5091843;28;20071;-57
2021/08/31 00:15:54;;;;;;;15.32;11.45;;;15.30;99.90;;;;;;5092191;28;20020;-57
2021/08/31 00:18:19;;;;;;;16.35;12.35;;;15.30;99.90;;;;;;5091947;28;20111;-51
2021/08/31 00:20:45;;;;;;;13.90;11.90;;;15.40;99.90;;;;;;5092814;28;20043;-53
2021/08/31 00:23:12;;;;;;;16.27;11.00;;;15.30;99.90;;;;;;5076449;28;20523;-54
2021/08/31 00:25:37;;;;;;;16.05;11.82;;;15.40;99.90;;;;;;5094126;28;20032;-53
2021/08/31 00:28:03;;;;;;;13.50;11.65;;;15.30;99.90;;;;;;5092678;28;20068;-56
2021/08/31 00:30:29;;;;;;;12.77;11.43;;;15.30;99.90;;;;;;5092472;28;20024;-54
2021/08/31 00:32:54;;;;;;;14.82;12.18;;;15.20;99.90;;;;;;5091940;28;20136;-59
2021/08/31 00:35:20;;;;;;;15.82;11.45;;;15.20;99.90;;;;;;5092155;28;20039;-54
2021/08/31 00:37:45;;;;;;;14.65;11.80;;;15.20;99.90;;;;;;5092010;28;20035;-52
2021/08/31 00:40:12;;;;;;;16.58;11.40;;;15.20;99.90;;;;;;5092044;28;20475;-53
2021/08/31 00:42:38;;;;;;;14.60;11.20;;;15.10;99.90;;;;;;5091546;28;20471;-54
2021/08/31 00:45:04;;;;;;;14.07;10.40;;;15.20;99.90;;;;;;5092659;28;20062;-50
2021/08/31 00:47:29;;;;;;;15.13;11.43;;;15.20;99.90;;;;;;5086549;28;20475;-54
2021/08/31 00:49:55;;;;;;;13.68;11.07;;;15.10;99.90;;;;;;5082998;28;20036;-56
2021/08/31 00:52:21;;;;;;;16.25;12.50;;;15.20;99.90;;;;;;5090183;28;20063;-52
2021/08/31 00:54:46;;;;;;;13.00;11.50;;;15.10;99.90;;;;;;5090885;28;20090;-53
2021/08/31 00:57:13;;;;;;;17.30;12.48;;;15.10;99.90;;;;;;5091243;28;20031;-51
2021/08/31 00:59:38;;;;;;;16.52;11.90;;;15.10;99.90;;;;;;5091693;28;20115;-50
2021/08/31 01:02:04;;;;;;;17.40;11.73;;;15.10;99.90;;;;;;5086926;28;20104;-51
2021/08/31 01:04:31;;;;;;;16.05;11.75;;;15.10;99.90;;;;;;5080287;28;20644;-51
2021/08/31 01:06:58;;;;;;;14.00;11.52;;;15.30;99.90;;;;;;5081708;28;20036;-49
2021/08/31 01:09:25;;;;;;;15.43;12.05;;;15.30;99.90;;;;;;5086749;28;20503;-51
2021/08/31 01:11:56;;;;;;;14.00;11.70;;;15.30;99.90;;;;;;5089694;28;20036;-53
2021/08/31 01:14:23;;;;;;;16.30;11.52;;;15.30;99.90;;;;;;5092940;28;20020;-53
2021/08/31 01:16:49;;;;;;;17.50;12.38;;;15.30;99.90;;;;;;5092984;28;20040;-56
2021/08/31 01:19:18;;;;;;;16.85;11.88;;;15.30;99.90;;;;;;5076314;28;20506;-49
2021/08/31 01:21:44;;;;;;;14.63;11.57;;;15.40;99.90;;;;;;5094753;28;20051;-54
2021/08/31 01:24:09;;;;;;;17.60;11.73;;;15.30;99.90;;;;;;5094264;28;20562;-50
2021/08/31 01:26:35;;;;;;;16.52;11.02;;;15.30;99.90;;;;;;5094785;28;20028;-51
2021/08/31 01:29:03;;;;;;;13.20;11.77;;;15.40;99.90;;;;;;5094569;28;20386;-52
2021/08/31 01:31:29;;;;;;;14.82;12.25;;;15.20;99.90;;;;;;5094735;28;20036;-52
2021/08/31 01:33:55;;;;;;;17.90;12.10;;;15.10;99.90;;;;;;5094179;28;20106;-55
2021/08/31 01:36:24;;;;;;;17.15;13.07;;;15.10;99.90;;;;;;5094655;28;20035;-49
2021/08/31 01:38:55;;;;;;;15.70;11.52;;;14.90;99.90;;;;;;5094297;28;20028;-50
2021/08/31 01:41:21;;;;;;;18.33;12.23;;;15.00;99.90;;;;;;5094315;28;20404;-50
2021/08/31 01:43:47;;;;;;;18.20;12.50;;;15.00;99.90;;;;;;5093988;28;20391;-50
2021/08/31 01:46:14;;;;;;;15.88;10.80;;;14.90;99.90;;;;;;5094296;28;20035;-52
2021/08/31 01:48:39;;;;;;;14.32;10.65;;;14.90;99.90;;;;;;5094399;28;20024;-52
2021/08/31 01:51:06;;;;;;;16.10;12.13;;;14.90;99.90;;;;;;5093849;28;20031;-51
2021/08/31 01:53:35;;;;;;;16.70;12.00;;;14.90;99.90;;;;;;5093735;28;20111;-54
2021/08/31 01:56:01;;;;;;;19.77;12.60;;;14.90;99.90;;;;;;5088428;28;20024;-54
2021/08/31 01:58:26;;;;;;;15.93;12.20;;;14.80;99.90;;;;;;5094006;28;20038;-57
2021/08/31 02:00:52;;;;;;;15.23;12.38;;;14.80;99.90;;;;;;5094115;28;20032;-53
2021/08/31 02:03:18;;;;;;;17.92;12.80;;;14.80;99.90;;;;;;5094061;28;20040;-54
2021/08/31 02:05:44;;;;;;;15.32;11.52;;;14.70;99.90;;;;;;5094466;28;20022;-53
2021/08/31 02:08:10;;;;;;;16.90;13.00;;;14.70;99.90;;;;;;5094099;28;20115;-55
2021/08/31 02:10:35;;;;;;;15.43;12.02;;;14.70;99.90;;;;;;5093835;28;20039;-54
2021/08/31 02:13:02;;;;;;;16.58;12.48;;;14.70;99.90;;;;;;5093368;28;20032;-55
2021/08/31 02:15:27;;;;;;;15.60;12.07;;;14.70;99.90;;;;;;5093970;28;20040;-51
2021/08/31 02:17:53;;;;;;;14.68;12.35;;;14.70;99.90;;;;;;5093426;28;20024;-57
2021/08/31 02:20:19;;;;;;;14.75;11.48;;;14.60;99.90;;;;;;5093268;28;20426;-55
2021/08/31 02:22:44;;;;;;;17.48;12.20;;;14.70;99.90;;;;;;5093350;28;20031;-53
2021/08/31 02:25:10;;;;;;;15.13;12.52;;;14.60;99.90;;;;;;5075470;28;20047;-54
2021/08/31 02:27:37;;;;;;;19.50;13.20;;;14.60;99.90;;;;;;5093213;28;20368;-54
2021/08/31 02:30:04;;;;;;;14.60;11.38;;;14.60;99.90;;;;;;5093244;28;20032;-53
2021/08/31 02:32:30;;;;;;;15.73;11.40;;;14.70;99.90;;;;;;5093338;28;20059;-54
2021/08/31 02:34:55;;;;;;;15.27;11.48;;;14.70;99.90;;;;;;5093268;28;20474;-53
2021/08/31 02:37:21;;;;;;;18.77;12.50;;;14.60;99.90;;;;;;5093174;28;20040;-56
2021/08/31 02:39:47;;;;;;;15.20;12.43;;;14.60;99.90;;;;;;5093495;28;20032;-50
2021/08/31 02:42:12;;;;;;;20.00;12.52;;;14.60;99.90;;;;;;5092767;28;20028;-52
2021/08/31 02:44:38;;;;;;;21.63;13.57;;;14.70;99.90;;;;;;5092852;28;20028;-57
2021/08/31 02:47:04;;;;;;;17.05;13.23;;;14.60;99.90;;;;;;5093038;28;20039;-53
2021/08/31 02:49:29;;;;;;;19.73;13.73;;;14.60;99.90;;;;;;5092750;28;20564;-51
2021/08/31 02:51:55;;;;;;;19.02;14.07;;;14.70;99.90;;;;;;5092194;28;20504;-50
2021/08/31 02:54:21;;;;;;;19.00;13.73;;;14.70;99.90;;;;;;5093514;28;20082;-54
2021/08/31 02:56:46;;;;;;;23.27;14.40;;;14.60;99.90;;;;;;5092771;28;20032;-55
2021/08/31 02:59:13;;;;;;;16.77;12.55;;;14.70;99.90;;;;;;5092589;28;20032;-56
2021/08/31 03:02:04;;;;;;;24.83;15.55;;;14.60;99.90;;;;;;5092645;28;20035;-54
2021/08/31 03:04:25;;;;;;;23.55;14.63;;;14.60;99.90;;;;;;5092449;28;20559;-56
2021/08/31 03:06:51;;;;;;;21.02;14.13;;;14.70;99.90;;;;;;5092737;28;20486;-56
2021/08/31 03:09:16;;;;;;;17.73;14.23;;;14.60;99.90;;;;;;5092701;28;20030;-56
2021/08/31 03:11:42;;;;;;;17.75;13.82;;;14.60;99.90;;;;;;5092425;28;20039;-50
2021/08/31 03:14:07;;;;;;;18.33;14.23;;;14.60;99.90;;;;;;5092620;28;20123;-51
2021/08/31 03:16:33;;;;;;;17.40;13.57;;;14.50;99.90;;;;;;5092357;28;20059;-54
2021/08/31 03:19:00;;;;;;;16.55;13.73;;;14.60;99.90;;;;;;5092286;28;20067;-57
2021/08/31 03:21:26;;;;;;;22.20;14.52;;;14.60;99.90;;;;;;5072764;28;20472;-56
2021/08/31 03:23:51;;;;;;;21.38;14.50;;;14.60;99.90;;;;;;5037464;28;20124;-54
2021/08/31 03:26:17;;;;;;;18.45;16.17;;;14.70;99.90;;;;;;5071446;28;20107;-56
2021/08/31 03:28:42;;;;;;;18.30;15.90;;;14.70;99.90;;;;;;5072345;28;20104;-54
2021/08/31 03:31:08;;;;;;;19.27;15.50;;;14.70;99.90;;;;;;5071917;28;20060;-54
2021/08/31 03:33:34;;;;;;;20.40;16.33;;;14.60;99.90;;;;;;5072018;28;20484;-56
2021/08/31 03:35:59;;;;;;;20.02;16.20;;;14.60;99.90;;;;;;5072338;28;20090;-55
2021/08/31 03:38:25;;;;;;;26.15;17.30;;;14.50;99.90;;;;;;5071928;28;20094;-56
2021/08/31 03:40:51;;;;;;;23.15;16.48;;;14.40;99.90;;;;;;5081877;28;20031;-55
2021/08/31 03:43:17;;;;;;;21.38;16.50;;;14.40;99.90;;;;;;5091484;28;20036;-57
2021/08/31 03:45:43;;;;;;;19.90;16.05;;;14.40;99.90;;;;;;5091958;28;20028;-53
2021/08/31 03:48:08;;;;;;;21.17;17.27;;;14.40;99.90;;;;;;5092443;28;20020;-53
2021/08/31 03:50:34;;;;;;;20.40;16.83;;;14.30;99.90;;;;;;5092432;28;20059;-55
2021/08/31 03:53:00;;;;;;;20.98;16.48;;;14.30;99.90;;;;;;5091624;28;20106;-56
2021/08/31 03:55:25;;;;;;;21.20;16.00;;;14.20;99.90;;;;;;5092211;28;20566;-56
2021/08/31 03:57:51;;;;;;;19.75;16.27;;;14.30;99.90;;;;;;5091920;28;20036;-54
2021/08/31 04:00:17;;;;;;;20.70;15.65;;;14.30;99.90;;;;;;5092133;28;20478;-52
2021/08/31 04:02:43;;;;;;;21.85;17.13;;;14.30;99.90;;;;;;5092090;28;20495;-54
2021/08/31 04:05:09;;;;;;;22.48;17.27;;;14.30;99.90;;;;;;5092021;28;20024;-54
2021/08/31 04:07:35;;;;;;;21.70;16.77;;;14.40;99.90;;;;;;5092095;28;20042;-54
2021/08/31 04:10:00;;;;;;;21.38;16.98;;;14.20;99.90;;;;;;5092197;28;20074;-54
2021/08/31 04:12:26;;;;;;;21.95;17.63;;;14.20;99.90;;;;;;5091321;28;20081;-58
2021/08/31 04:14:51;;;;;;;21.00;17.08;;;14.30;99.90;;;;;;5091846;28;20032;-58
2021/08/31 04:17:17;;;;;;;21.55;16.70;;;14.30;99.90;;;;;;5092130;28;20036;-50
2021/08/31 04:19:42;;;;;;;19.45;16.77;;;14.40;99.90;;;;;;5086287;28;20479;-55
2021/08/31 04:22:09;;;;;;;19.67;16.40;;;14.30;99.90;;;;;;5053495;28;20051;-57
2021/08/31 04:24:36;;;;;;;22.63;17.42;;;14.30;99.90;;;;;;5053457;28;20039;-55
2021/08/31 04:27:02;;;;;;;18.75;16.75;;;14.40;99.90;;;;;;5071713;28;20040;-55
2021/08/31 04:29:28;;;;;;;23.75;17.20;;;14.40;99.90;;;;;;5071613;28;20060;-52
2021/08/31 04:31:53;;;;;;;18.05;15.77;;;14.30;99.90;;;;;;5071332;28;20064;-52
2021/08/31 04:34:19;;;;;;;22.80;17.13;;;14.30;99.90;;;;;;5071619;28;20056;-54
2021/08/31 04:36:44;;;;;;;19.95;16.13;;;14.30;99.90;;;;;;5073020;28;20024;-53
2021/08/31 04:39:10;;;;;;;20.83;17.30;;;14.40;99.90;;;;;;5075426;28;20086;-52
2021/08/31 04:41:36;;;;;;;19.02;15.77;;;14.40;99.90;;;;;;5091345;28;20114;-56
2021/08/31 04:44:02;;;;;;;19.42;16.00;;;14.40;99.90;;;;;;5060740;28;20028;-54
2021/08/31 04:46:27;;;;;;;21.02;16.55;;;14.40;99.90;;;;;;5095702;28;20107;-56
2021/08/31 04:48:53;;;;;;;21.88;16.10;;;14.40;99.90;;;;;;5095804;28;20020;-53
2021/08/31 04:51:18;;;;;;;17.70;14.73;;;14.40;99.90;;;;;;5095408;28;20036;-52
2021/08/31 04:53:44;;;;;;;20.73;16.48;;;14.40;99.90;;;;;;5095189;28;20502;-56
2021/08/31 04:56:09;;;;;;;22.15;16.08;;;14.40;99.90;;;;;;5095366;28;20025;-52
2021/08/31 04:58:35;;;;;;;22.33;16.02;;;14.50;99.90;;;;;;5094742;28;20032;-56
2021/08/31 05:01:00;;;;;;;21.75;15.85;;;14.50;99.90;;;;;;5095268;28;20511;-52
2021/08/31 05:03:26;;;;;;;22.27;17.63;;;14.50;99.90;;;;;;5094986;28;20089;-54
2021/08/31 05:05:52;;;;;;;20.27;15.18;;;14.50;99.90;;;;;;5076858;28;20090;-56
2021/08/31 05:08:17;;;;;;;16.70;14.88;;;14.50;99.90;;;;;;5076976;28;20032;-57
2021/08/31 05:10:43;;;;;;;20.80;16.42;;;14.60;99.90;;;;;;5094874;28;20127;-54
2021/08/31 05:13:09;;;;;;;16.60;14.07;;;14.60;99.90;;;;;;5094262;28;20169;-52
2021/08/31 05:15:34;;;;;;;24.73;16.95;;;14.70;99.90;;;;;;5095250;28;20067;-55
2021/08/31 05:18:00;;;;;;;17.65;14.88;;;14.70;99.90;;;;;;5094706;28;20051;-54
2021/08/31 05:20:28;;;;;;;20.10;15.32;;;14.70;99.90;;;;;;5082940;28;20032;-58
2021/08/31 05:22:54;;;;;;;20.05;16.67;;;14.70;99.90;;;;;;5074118;28;20025;-52
2021/08/31 05:25:20;;;;;;;19.35;15.90;;;14.80;99.90;;;;;;5074165;28;20029;-57
2021/08/31 05:27:46;;;;;;;18.65;15.45;;;14.80;99.90;;;;;;5074440;28;20101;-55
2021/08/31 05:30:12;;;;;;;18.90;15.48;;;14.80;99.90;;;;;;5074755;28;20060;-56
2021/08/31 05:32:38;;;;;;;18.75;15.20;;;14.90;99.90;;;;;;5074011;28;20045;-58
2021/08/31 05:35:04;;;;;;;20.50;16.15;;;15.00;99.90;;;;;;5074346;28;20032;-54
2021/08/31 05:37:29;;;;;;;16.02;13.98;;;15.00;99.90;;;;;;5074442;28;20032;-53
2021/08/31 05:39:55;;;;;;;17.10;14.73;;;15.00;99.90;;;;;;5076263;28;20038;-55
2021/08/31 05:42:21;;;;;;;21.20;15.82;;;15.00;99.90;;;;;;5093657;28;20032;-50
2021/08/31 05:44:47;;;;;;;19.88;14.90;;;15.00;99.90;;;;;;5094207;28;20028;-56
2021/08/31 05:47:12;;;;;;;18.10;15.63;;;14.80;99.90;;;;;;5094084;28;20028;-55
2021/08/31 05:49:38;;;;;;;19.48;15.20;;;14.90;99.90;;;;;;5093649;28;20032;-52
2021/08/31 05:52:04;;;;;;;20.48;14.80;;;15.00;99.90;;;;;;5093926;28;20078;-51
2021/08/31 05:54:30;;;;;;;18.13;14.10;;;15.10;99.90;;;;;;5094065;28;20078;-53
2021/08/31 05:56:57;;;;;;;23.48;14.27;;;15.10;99.90;;;;;;5094002;28;20059;-54
2021/08/31 05:59:23;;;;;;;19.63;14.85;;;15.00;99.90;;;;;;5093813;28;20024;-58
2021/08/31 06:01:49;;;;;;;20.23;14.95;;;15.10;99.90;;;;;;5093899;28;20024;-58
2021/08/31 06:04:15;;;;;;;17.08;14.40;;;15.10;99.90;;;;;;5094467;28;20040;-58
2021/08/31 06:06:41;;;;;;;18.75;14.23;;;15.20;99.90;;;;;;5093730;28;20094;-54
2021/08/31 06:09:07;;;;;;;15.23;13.60;;;15.30;99.90;;;;;;5094141;28;20068;-55
2021/08/31 06:11:39;;;;;;;15.90;14.20;;;15.30;99.90;;;;;;5093777;28;20040;-56
2021/08/31 06:14:06;;;;;;;18.17;13.68;;;15.40;99.90;;;;;;5094093;28;20036;-52
2021/08/31 06:16:32;;;;;;;16.33;13.52;;;15.30;99.90;;;;;;5093757;28;20500;-55
2021/08/31 06:18:58;;;;;;;20.33;14.52;;;15.40;99.90;;;;;;5093406;28;20032;-51
2021/08/31 06:21:23;;;;;;;16.30;13.77;;;15.40;99.90;;;;;;5074081;28;20020;-52
2021/08/31 06:23:49;;;;;;;15.82;13.50;;;15.40;99.90;;;;;;5072678;28;20051;-54
2021/08/31 06:26:15;;;;;;;14.23;12.65;;;15.30;99.90;;;;;;5072942;28;20132;-52
2021/08/31 06:28:40;;;;;;;18.35;14.13;;;15.40;99.90;;;;;;5073380;28;20075;-53
2021/08/31 06:31:06;;;;;;;18.70;14.13;;;15.40;99.90;;;;;;5079092;28;20024;-51
2021/08/31 06:33:31;;;;;;;16.00;13.60;;;15.30;99.90;;;;;;5092769;28;20071;-55
2021/08/31 06:35:57;;;;;;;15.75;13.57;;;15.40;99.90;;;;;;5093355;28;20025;-55
2021/08/31 06:38:22;;;;;;;17.25;13.27;;;15.30;99.90;;;;;;5093299;28;20502;-50
2021/08/31 06:40:48;;;;;;;15.95;13.43;;;15.30;99.90;;;;;;5091439;28;20024;-54
2021/08/31 06:43:14;;;;;;;17.60;13.55;;;15.30;99.90;;;;;;5093038;28;20048;-57
2021/08/31 06:45:41;;;;;;;19.65;13.00;;;15.30;99.90;;;;;;5092740;28;20441;-52
2021/08/31 06:48:06;;;;;;;17.65;12.68;;;15.40;99.90;;;;;;5093486;28;20024;-54
2021/08/31 06:50:32;;;;;;;19.35;12.88;;;15.50;99.90;;;;;;5089543;28;20036;-53
2021/08/31 06:52:58;;;;;;;14.02;12.25;;;15.60;99.90;;;;;;5089745;28;20039;-51
2021/08/31 06:55:24;;;;;;;15.10;12.27;;;15.50;99.90;;;;;;5093052;28;20039;-56
2021/08/31 06:57:49;;;;;;;15.05;12.25;;;15.70;99.90;;;;;;5074898;28;20035;-56
2021/08/31 07:00:15;;;;;;;20.08;12.18;;;15.70;99.90;;;;;;5091780;28;20043;-51
2021/08/31 07:02:41;;;;;;;14.73;11.65;;;15.80;99.90;;;;;;5092490;28;20031;-51
2021/08/31 07:05:07;;;;;;;15.70;11.93;;;15.90;99.90;;;;;;5092737;28;20533;-54
2021/08/31 07:07:33;;;;;;;15.98;12.02;;;15.90;99.90;;;;;;5092682;28;20035;-53
2021/08/31 07:09:59;;;;;;;13.95;11.88;;;15.70;99.90;;;;;;5092188;28;20032;-56
2021/08/31 07:12:24;;;;;;;18.02;13.27;;;15.70;99.90;;;;;;5086126;28;20051;-58
2021/08/31 07:14:52;;;;;;;15.70;13.98;;;15.50;99.90;;;;;;5092566;28;20028;-54
2021/08/31 07:17:17;;;;;;;15.85;14.18;;;15.70;99.90;;;;;;5092367;28;20519;-58
2021/08/31 07:19:43;;;;;;;19.08;15.25;;;15.70;99.90;;;;;;5092045;28;20108;-57
2021/08/31 07:22:09;;;;;;;17.52;14.55;;;15.70;99.90;;;;;;5073475;28;20028;-54
2021/08/31 07:24:35;;;;;;;16.77;15.10;;;15.70;99.90;;;;;;5092401;28;20085;-54
2021/08/31 07:27:00;;;;;;;24.85;16.80;;;15.60;99.90;;;;;;5092532;28;20020;-53
2021/08/31 07:29:26;;;;;;;19.65;17.55;;;15.60;99.90;;;;;;5092585;28;20122;-56
2021/08/31 07:31:52;;;;;;;22.23;18.23;;;15.50;99.90;;;;;;5091308;28;20038;-50
2021/08/31 07:34:18;;;;;;;22.40;18.70;;;15.50;99.90;;;;;;5092132;28;20063;-51
2021/08/31 07:36:45;;;;;;;23.02;18.70;;;15.50;99.90;;;;;;5092364;28;20114;-52
2021/08/31 07:39:12;;;;;;;23.40;17.88;;;15.60;99.90;;;;;;5092255;28;20027;-56
2021/08/31 07:41:38;;;;;;;23.70;19.10;;;15.60;99.90;;;;;;5091551;28;20082;-56
2021/08/31 07:44:04;;;;;;;22.88;18.90;;;15.70;99.90;;;;;;5091926;28;20040;-53
2021/08/31 07:46:30;;;;;;;28.30;20.58;;;15.70;99.90;;;;;;5091698;28;20491;-54
2021/08/31 07:48:56;;;;;;;27.02;20.13;;;15.80;99.90;;;;;;5084522;28;20031;-56
2021/08/31 07:51:22;;;;;;;26.80;20.33;;;15.80;99.90;;;;;;5091693;28;20032;-54
2021/08/31 07:53:48;;;;;;;24.73;20.70;;;15.80;99.90;;;;;;5074041;28;20035;-54
2021/08/31 07:56:14;;;;;;;28.80;21.30;;;15.70;99.90;;;;;;5092079;28;20123;-55
2021/08/31 07:58:40;;;;;;;29.00;22.27;;;15.70;99.90;;;;;;5092175;28;20127;-54
2021/08/31 08:01:06;;;;;;;31.80;23.17;;;15.80;99.90;;;;;;5091584;28;20055;-54
2021/08/31 08:03:32;;;;;;;29.85;22.50;;;15.90;99.90;;;;;;5091720;28;20102;-56
2021/08/31 08:05:58;;;;;;;25.88;21.90;;;15.80;99.90;;;;;;5091895;28;20055;-53
2021/08/31 08:08:23;;;;;;;31.48;24.02;;;15.80;99.90;;;;;;5073990;28;20024;-52
2021/08/31 08:10:51;;;;;;;29.17;22.65;;;15.80;99.90;;;;;;5091547;28;20036;-53
2021/08/31 08:13:17;;;;;;;29.05;22.48;;;15.90;99.90;;;;;;5095258;28;20035;-55
2021/08/31 08:15:42;;;;;;;24.70;22.08;;;16.10;99.90;;;;;;5096275;28;20032;-57
2021/08/31 08:18:08;;;;;;;29.85;21.85;;;16.20;99.90;;;;;;5096052;28;20032;-57
2021/08/31 08:20:33;;;;;;;26.77;22.05;;;16.20;99.90;;;;;;5094309;28;20036;-58
2021/08/31 08:22:59;;;;;;;25.05;21.98;;;16.30;99.90;;;;;;5095896;28;20106;-54
2021/08/31 08:25:25;;;;;;;28.08;21.50;;;16.40;99.90;;;;;;5096267;28;20119;-55
2021/08/31 08:27:50;;;;;;;25.85;21.70;;;16.60;99.90;;;;;;5097213;28;20051;-59
2021/08/31 08:30:16;;;;;;;23.55;21.05;;;16.80;99.90;;;;;;5100720;28;20040;-56
2021/08/31 08:32:42;;;;;;;25.30;21.02;;;16.80;99.90;;;;;;5097208;28;20042;-58
2021/08/31 08:35:09;;;;;;;27.30;22.30;;;16.70;99.90;;;;;;5101767;28;20084;-58
2021/08/31 08:37:35;;;;;;;26.45;21.15;;;16.80;99.90;;;;;;5096479;28;20039;-56
2021/08/31 08:40:00;;;;;;;25.05;21.70;;;16.70;99.90;;;;;;5095648;28;20024;-53
2021/08/31 08:42:26;;;;;;;23.95;19.75;;;16.50;99.90;;;;;;5095156;28;20060;-50
2021/08/31 08:44:52;;;;;;;22.30;19.70;;;16.40;99.90;;;;;;5095602;28;20035;-56
2021/08/31 08:47:17;;;;;;;22.48;19.42;;;16.40;99.90;;;;;;5093279;28;20027;-56
2021/08/31 08:49:47;;;;;;;21.02;18.83;;;16.40;99.90;;;;;;5074244;28;20483;-56
2021/08/31 08:52:13;;;;;;;23.63;19.13;;;16.60;99.90;;;;;;5093630;28;20032;-54
2021/08/31 08:54:41;;;;;;;20.60;17.45;;;16.40;99.90;;;;;;5095933;28;20032;-57
2021/08/31 08:57:06;;;;;;;17.52;14.98;;;16.60;99.90;;;;;;5095833;28;20028;-57
2021/08/31 08:59:32;;;;;;;22.33;15.82;;;16.70;99.90;;;;;;5095775;28;20058;-54
2021/08/31 09:01:58;;;;;;;21.95;15.73;;;16.60;99.90;;;;;;5091327;28;20043;-53
2021/08/31 09:04:42;;;;;;;16.23;14.30;;;16.60;99.70;;;;;;5086327;28;20024;-56
2021/08/31 09:07:22;;;;;;;17.42;13.73;;;16.90;99.70;;;;;;5094494;28;20088;-55
2021/08/31 09:10:09;;;;;;;17.13;13.35;;;17.10;99.10;;;;;;5094431;28;20063;-57
2021/08/31 09:12:35;;;;;;;14.65;12.98;;;17.20;98.80;;;;;;5075473;28;20032;-53
2021/08/31 09:15:21;;;;;;;15.50;13.50;;;17.20;98.90;;;;;;5075227;28;20035;-55
2021/08/31 09:18:11;;;;;;;15.30;12.60;;;17.30;98.80;;;;;;5081095;28;20040;-54
2021/08/31 09:20:47;;;;;;;15.75;12.75;;;17.20;98.30;;;;;;5080248;28;20055;-57
2021/08/31 09:23:19;;;;;;;14.30;12.30;;;17.20;98.10;;;;;;5073130;28;20111;-54
2021/08/31 09:25:48;;;;;;;18.35;12.95;;;17.00;98.50;;;;;;5056648;28;20156;-53
2021/08/31 09:29:08;;;;;;;15.38;13.25;;;17.10;98.50;;;;;;5075140;28;20036;-52
2021/08/31 09:32:09;;;;;;;16.05;13.43;;;17.20;98.70;;;;;;5041517;28;20511;-52
2021/08/31 09:34:42;;;;;;;17.05;12.85;;;17.50;98.30;;;;;;5080528;28;20544;-53
2021/08/31 09:37:46;;;;;;;14.73;12.57;;;17.40;97.90;;;;;;5094942;28;20429;-54
2021/08/31 09:40:15;;;;;;;17.42;12.75;;;17.40;98.20;;;;;;5025294;28;20137;-53
2021/08/31 09:43:01;;;;;;;14.63;13.05;;;17.20;97.80;;;;;;5078950;28;20040;-54
2021/08/31 09:45:39;;;;;;;14.95;11.80;;;16.90;98.50;;;;;;5094389;28;20028;-53
2021/08/31 09:48:07;;;;;;;13.93;12.40;;;17.20;98.30;;;;;;5082178;28;20032;-55
2021/08/31 09:50:46;;;;;;;13.95;12.23;;;17.40;97.80;;;;;;5082501;28;20040;-52
2021/08/31 09:53:17;;;;;;;14.50;12.60;;;17.70;97.50;;;;;;5093947;28;20032;-53
2021/08/31 09:56:03;;;;;;;17.95;14.50;;;17.80;97.00;;;;;;5094721;28;20390;-56
2021/08/31 09:58:34;;;;;;;15.00;13.48;;;17.70;96.90;;;;;;5092809;28;20043;-51
2021/08/31 10:01:00;;;;;;;16.30;13.07;;;17.70;97.30;;;;;;5094623;28;20032;-54
2021/08/31 10:03:26;;;;;;;16.98;13.65;;;17.70;97.60;;;;;;5094308;28;20028;-53
2021/08/31 10:05:55;;;;;;;17.10;12.50;;;17.90;97.50;;;;;;5094725;28;20032;-55
2021/08/31 10:08:21;;;;;;;13.95;12.60;;;17.90;97.10;;;;;;5094028;28;20039;-53
2021/08/31 10:10:50;;;;;;;13.52;11.75;;;17.80;97.10;;;;;;5094334;28;20036;-56
2021/08/31 10:13:19;;;;;;;13.18;10.90;;;17.80;96.30;;;;;;5094327;28;20040;-52
2021/08/31 10:15:51;;;;;;;13.23;11.57;;;17.70;96.70;;;;;;5093678;28;20483;-53
2021/08/31 10:18:18;;;;;;;15.90;11.60;;;17.80;96.70;;;;;;5093973;28;20032;-55
2021/08/31 10:20:49;;;;;;;11.38;10.10;;;17.80;96.90;;;;;;5094230;28;20114;-56
2021/08/31 10:23:18;;;;;;;14.77;11.48;;;18.00;96.70;;;;;;5093624;28;20553;-56
2021/08/31 10:25:44;;;;;;;12.27;10.98;;;17.90;96.60;;;;;;5094203;28;20104;-55
2021/08/31 10:28:29;;;;;;;11.65;10.38;;;17.90;96.60;;;;;;5094412;28;20111;-56
2021/08/31 10:30:57;;;;;;;12.55;10.93;;;17.90;96.40;;;;;;5094011;28;20479;-53
2021/08/31 10:33:30;;;;;;;15.05;11.45;;;18.00;96.60;;;;;;5092894;28;20028;-55
2021/08/31 10:35:59;;;;;;;12.38;9.52;;;18.10;96.40;;;;;;5093651;28;20372;-53
2021/08/31 10:38:45;;;;;;;13.60;10.43;;;18.10;96.20;;;;;;5084017;28;20033;-55
2021/08/31 10:41:29;;;;;;;12.30;9.98;;;18.10;96.00;;;;;;5089115;28;20029;-55
2021/08/31 10:43:56;;;;;;;11.10;9.95;;;18.00;96.30;;;;;;5084955;28;20570;-56
2021/08/31 10:46:22;;;;;;;10.30;9.30;;;17.90;96.40;;;;;;5080878;28;20087;-59
2021/08/31 10:49:07;;;;;;;12.85;10.05;;;18.10;96.60;;;;;;5077546;28;20068;-54
2021/08/31 10:52:02;;;;;;;12.27;10.77;;;18.20;96.40;;;;;;5091661;28;20044;-54
2021/08/31 10:54:48;;;;;;;11.85;10.65;;;18.40;96.10;;;;;;5092815;28;20054;-58
2021/08/31 10:57:35;;;;;;;11.00;9.05;;;18.50;96.10;;;;;;5093151;28;20043;-55
2021/08/31 11:00:15;;;;;;;13.25;9.77;;;18.60;95.20;;;;;;5093393;28;20023;-52
2021/08/31 11:02:50;;;;;;;10.13;9.05;;;18.60;94.90;;;;;;5086802;28;20455;-54
2021/08/31 11:05:18;;;;;;;;;;;18.50;95.10;;;;;;5093019;28;20036;-50
2021/08/31 11:07:45;;;;;;;9.98;8.60;;;18.50;95.70;;;;;;5092882;28;19908;-51
2021/08/31 11:10:10;;;;;;;10.38;8.40;;;18.50;95.60;;;;;;5093323;28;20498;-53
2021/08/31 11:12:36;;;;;;;11.60;8.95;;;18.50;95.20;;;;;;5092596;28;20035;-57
2021/08/31 11:15:02;;;;;;;14.57;9.30;;;18.50;95.50;;;;;;5083268;28;20106;-56
2021/08/31 11:17:33;;;;;;;10.85;9.02;;;18.60;95.30;;;;;;5086053;28;20479;-52
2021/08/31 11:20:16;;;;;;;14.55;10.55;;;18.60;95.30;;;;;;5084751;28;20028;-51
2021/08/31 11:22:42;;;;;;;11.50;10.13;;;18.50;95.50;;;;;;5072558;28;20125;-51
2021/08/31 11:25:08;;;;;;;11.93;10.20;;;18.50;95.50;;;;;;5072632;28;20044;-51
2021/08/31 11:27:59;;;;;;;10.90;9.73;;;18.70;95.20;;;;;;5072492;28;20054;-52
2021/08/31 11:30:25;;;;;;;10.35;8.98;;;18.70;95.10;;;;;;5080454;28;20020;-53
2021/08/31 11:33:15;;;;;;;10.77;8.52;;;18.80;94.90;;;;;;5091743;28;20123;-54
2021/08/31 11:35:41;;;;;;;12.27;9.95;;;18.80;94.50;;;;;;5091905;28;20043;-57
2021/08/31 11:38:07;;;;;;;13.82;10.20;;;18.70;94.50;;;;;;5089388;28;20032;-56
2021/08/31 11:40:33;;;;;;;11.95;9.55;;;18.60;94.70;;;;;;5092290;28;20035;-57
2021/08/31 11:42:58;;;;;;;11.23;9.68;;;18.30;95.20;;;;;;5091555;28;20031;-54
2021/08/31 11:45:39;;;;;;;11.60;9.75;;;18.30;95.30;;;;;;5092536;28;20046;-51
2021/08/31 11:48:06;;;;;;;12.02;10.25;;;18.40;95.20;;;;;;5092452;28;20024;-53
2021/08/31 11:50:33;;;;;;;11.00;9.20;;;18.40;95.20;;;;;;5083492;28;20028;-53
2021/08/31 11:53:17;;;;;;;12.77;10.30;;;18.30;95.60;;;;;;5074255;28;20033;-57
2021/08/31 11:55:42;;;;;;;10.73;9.63;;;18.40;95.80;;;;;;5073014;28;20439;-56
2021/08/31 11:58:08;;;;;;;13.98;10.43;;;18.40;96.00;;;;;;5072330;28;20036;-53
2021/08/31 12:00:44;;;;;;;10.63;9.52;;;18.50;95.90;;;;;;5054451;28;20498;-53
2021/08/31 12:03:21;;;;;;;12.95;10.55;;;18.60;95.90;;;;;;5072034;28;20029;-57
2021/08/31 12:05:51;;;;;;;10.77;9.30;;;18.70;95.60;;;;;;5071785;28;20078;-57
2021/08/31 12:08:17;;;;;;;10.25;9.10;;;18.90;95.10;;;;;;5072550;28;20035;-57
2021/08/31 12:10:44;;;;;;;10.45;9.02;;;18.80;94.80;;;;;;5054589;28;20119;-50
2021/08/31 12:13:09;;;;;;;11.35;9.30;;;18.80;94.70;;;;;;5072862;28;20025;-55
2021/08/31 12:15:35;;;;;;;11.20;9.95;;;18.90;94.60;;;;;;5072076;28;20032;-56
2021/08/31 12:18:03;;;;;;;11.50;9.73;;;19.20;94.30;;;;;;5072021;28;20078;-56
2021/08/31 12:20:29;;;;;;;13.88;9.68;;;19.10;94.30;;;;;;5083853;28;20028;-51
2021/08/31 12:23:01;;;;;;;10.85;8.45;;;19.20;94.00;;;;;;5092304;28;20241;-56
2021/08/31 12:25:40;;;;;;;11.00;8.23;;;19.20;93.90;;;;;;5092240;28;20081;-52
2021/08/31 12:28:06;;;;;;;13.70;8.90;;;19.10;93.50;;;;;;5092080;28;20032;-54
2021/08/31 12:30:36;;;;;;;9.43;8.43;;;18.90;93.50;;;;;;5092243;28;20032;-56
2021/08/31 12:33:03;;;;;;;10.40;8.85;;;19.20;93.80;;;;;;5073415;28;20082;-50